sensor_id;sensor_type;location;lat;lon;timestamp;pressure;altitude;pressure_sealevel;temperature;humidity
37132;BME280;23035;50.032;21.978;2023-06-10T00:01:21;67100.97;;;18.32;100.00
37132;BME280;23035;50.032;21.978;2023-06-10T00:06:28;67089.63;;;18.21;100.00
37132;BME280;23035;50.032;21.978;2023-06-10T00:11:38;67092.91;;;18.27;100.00
37132;BME280;23035;50.032;21.978;2023-06-10T00:16:42;67101.97;;;18.30;100.00
37132;BME280;23035;50.032;21.978;2023-06-10T00:21:49;67100.41;;;18.31;100.00
37132;BME280;23035;50.032;21.978;2023-06-10T00:26:53;67043.25;;;17.77;100.00
37132;BME280;23035;50.032;21.978;2023-06-10T00:31:57;67039.47;;;17.74;100.00
37132;BME280;23035;50.032;21.978;2023-06-10T00:37:04;67020.56;;;17.56;100.00
37132;BME280;23035;50.032;21.978;2023-06-10T00:42:08;67014.56;;;17.48;100.00
37132;BME280;23035;50.032;21.978;2023-06-10T00:47:15;66991.53;;;17.31;100.00
37132;BME280;23035;50.032;21.978;2023-06-10T00:52:22;66973.69;;;17.12;100.00
37132;BME280;23035;50.032;21.978;2023-06-10T00:57:30;66972.63;;;17.11;100.00
37132;BME280;23035;50.032;21.978;2023-06-10T01:02:35;66980.13;;;17.18;100.00
37132;BME280;23035;50.032;21.978;2023-06-10T01:07:46;66963.38;;;17.00;100.00
37132;BME280;23035;50.032;21.978;2023-06-10T01:12:59;66980.75;;;17.21;100.00
37132;BME280;23035;50.032;21.978;2023-06-10T01:18:06;67023.25;;;17.59;100.00
37132;BME280;23035;50.032;21.978;2023-06-10T01:23:14;67050.94;;;17.90;100.00
37132;BME280;23035;50.032;21.978;2023-06-10T01:28:25;67040.53;;;17.75;100.00
37132;BME280;23035;50.032;21.978;2023-06-10T01:33:33;67087.06;;;18.24;100.00
37132;BME280;23035;50.032;21.978;2023-06-10T01:38:42;67089.69;;;18.24;100.00
37132;BME280;23035;50.032;21.978;2023-06-10T01:43:49;67109.59;;;18.40;100.00
37132;BME280;23035;50.032;21.978;2023-06-10T01:48:53;67052.41;;;17.86;100.00
37132;BME280;23035;50.032;21.978;2023-06-10T01:53:58;67042.22;;;17.79;100.00
37132;BME280;23035;50.032;21.978;2023-06-10T01:59:03;67077.22;;;18.10;100.00
37132;BME280;23035;50.032;21.978;2023-06-10T02:04:07;67078.84;;;18.11;100.00
37132;BME280;23035;50.032;21.978;2023-06-10T02:09:12;67091.19;;;18.20;100.00
37132;BME280;23035;50.032;21.978;2023-06-10T02:14:17;66954.34;;;16.96;100.00
37132;BME280;23035;50.032;21.978;2023-06-10T02:19:21;67011.34;;;17.45;100.00
37132;BME280;23035;50.032;21.978;2023-06-10T02:24:27;67060.97;;;17.92;100.00
37132;BME280;23035;50.032;21.978;2023-06-10T02:29:31;67053.56;;;17.90;100.00
37132;BME280;23035;50.032;21.978;2023-06-10T02:34:35;67069.06;;;17.99;100.00
37132;BME280;23035;50.032;21.978;2023-06-10T02:39:43;67034.16;;;17.71;100.00
37132;BME280;23035;50.032;21.978;2023-06-10T02:44:47;66999.00;;;17.36;100.00
37132;BME280;23035;50.032;21.978;2023-06-10T02:50:00;66992.53;;;17.30;100.00
37132;BME280;23035;50.032;21.978;2023-06-10T02:55:11;67020.09;;;17.58;100.00
37132;BME280;23035;50.032;21.978;2023-06-10T03:00:21;67031.84;;;17.64;100.00
37132;BME280;23035;50.032;21.978;2023-06-10T03:05:26;66988.16;;;17.23;100.00
37132;BME280;23035;50.032;21.978;2023-06-10T03:10:33;66959.75;;;17.01;100.00
37132;BME280;23035;50.032;21.978;2023-06-10T03:15:39;67025.44;;;17.61;100.00
37132;BME280;23035;50.032;21.978;2023-06-10T03:20:48;67000.78;;;17.42;100.00
37132;BME280;23035;50.032;21.978;2023-06-10T03:25:57;67066.97;;;18.00;100.00
37132;BME280;23035;50.032;21.978;2023-06-10T03:31:02;67086.91;;;18.19;100.00
37132;BME280;23035;50.032;21.978;2023-06-10T03:36:07;67083.22;;;18.18;100.00
37132;BME280;23035;50.032;21.978;2023-06-10T03:41:14;67098.81;;;18.30;100.00
37132;BME280;23035;50.032;21.978;2023-06-10T03:46:19;67059.63;;;18.00;100.00
37132;BME280;23035;50.032;21.978;2023-06-10T03:51:24;67112.34;;;18.45;100.00
37132;BME280;23035;50.032;21.978;2023-06-10T03:56:29;67133.41;;;18.65;100.00
37132;BME280;23035;50.032;21.978;2023-06-10T04:01:33;67158.31;;;18.91;100.00
37132;BME280;23035;50.032;21.978;2023-06-10T04:06:40;67190.53;;;19.16;100.00
37132;BME280;23035;50.032;21.978;2023-06-10T04:11:47;67250.44;;;19.70;100.00
37132;BME280;23035;50.032;21.978;2023-06-10T04:16:52;67219.84;;;19.49;100.00
37132;BME280;23035;50.032;21.978;2023-06-10T04:21:56;67253.19;;;19.75;100.00
37132;BME280;23035;50.032;21.978;2023-06-10T04:27:02;67223.00;;;19.49;100.00
37132;BME280;23035;50.032;21.978;2023-06-10T04:32:07;67124.75;;;18.57;100.00
37132;BME280;23035;50.032;21.978;2023-06-10T04:37:12;67152.28;;;18.83;100.00
37132;BME280;23035;50.032;21.978;2023-06-10T04:42:17;67167.41;;;18.97;100.00
37132;BME280;23035;50.032;21.978;2023-06-10T04:47:22;67142.09;;;18.76;100.00
37132;BME280;23035;50.032;21.978;2023-06-10T04:52:29;67199.72;;;19.25;100.00
37132;BME280;23035;50.032;21.978;2023-06-10T04:57:36;67239.28;;;19.67;100.00
37132;BME280;23035;50.032;21.978;2023-06-10T05:02:40;67140.97;;;18.72;100.00
37132;BME280;23035;50.032;21.978;2023-06-10T05:07:45;67164.16;;;18.94;100.00
37132;BME280;23035;50.032;21.978;2023-06-10T05:12:51;67145.28;;;18.76;100.00
37132;BME280;23035;50.032;21.978;2023-06-10T05:17:56;67234.97;;;19.63;100.00
37132;BME280;23035;50.032;21.978;2023-06-10T05:23:01;67211.59;;;19.36;100.00
37132;BME280;23035;50.032;21.978;2023-06-10T05:28:07;67238.66;;;19.64;100.00
37132;BME280;23035;50.032;21.978;2023-06-10T05:33:17;67217.06;;;19.44;100.00
37132;BME280;23035;50.032;21.978;2023-06-10T05:38:21;67256.44;;;19.79;100.00
37132;BME280;23035;50.032;21.978;2023-06-10T05:43:26;67264.53;;;19.86;100.00
37132;BME280;23035;50.032;21.978;2023-06-10T05:48:30;67393.66;;;21.08;100.00
37132;BME280;23035;50.032;21.978;2023-06-10T05:53:34;67439.72;;;21.54;100.00
37132;BME280;23035;50.032;21.978;2023-06-10T05:58:40;67421.72;;;21.32;100.00
37132;BME280;23035;50.032;21.978;2023-06-10T06:03:44;67445.69;;;21.62;100.00
37132;BME280;23035;50.032;21.978;2023-06-10T06:08:48;67433.69;;;21.45;100.00
37132;BME280;23035;50.032;21.978;2023-06-10T06:13:54;67498.72;;;22.12;100.00
37132;BME280;23035;50.032;21.978;2023-06-10T06:18:58;67528.88;;;22.35;100.00
37132;BME280;23035;50.032;21.978;2023-06-10T06:24:05;67421.28;;;21.34;100.00
37132;BME280;23035;50.032;21.978;2023-06-10T06:29:11;67420.72;;;21.33;100.00
37132;BME280;23035;50.032;21.978;2023-06-10T06:34:15;67387.84;;;21.07;100.00
37132;BME280;23035;50.032;21.978;2023-06-10T06:39:20;67521.31;;;22.28;100.00
37132;BME280;23035;50.032;21.978;2023-06-10T06:44:26;67385.69;;;21.05;100.00
37132;BME280;23035;50.032;21.978;2023-06-10T06:49:31;67355.34;;;20.74;100.00
37132;BME280;23035;50.032;21.978;2023-06-10T06:54:35;67389.34;;;21.04;100.00
37132;BME280;23035;50.032;21.978;2023-06-10T06:59:43;67410.50;;;21.26;100.00
37132;BME280;23035;50.032;21.978;2023-06-10T07:04:48;67401.31;;;21.17;100.00
37132;BME280;23035;50.032;21.978;2023-06-10T07:09:52;67384.47;;;20.99;100.00
37132;BME280;23035;50.032;21.978;2023-06-10T07:14:58;67402.88;;;21.16;100.00
37132;BME280;23035;50.032;21.978;2023-06-10T07:20:03;67462.94;;;21.75;100.00
37132;BME280;23035;50.032;21.978;2023-06-10T07:25:08;67533.22;;;22.39;100.00
37132;BME280;23035;50.032;21.978;2023-06-10T07:30:14;67402.91;;;21.19;100.00
37132;BME280;23035;50.032;21.978;2023-06-10T07:35:18;67435.84;;;21.47;100.00
37132;BME280;23035;50.032;21.978;2023-06-10T07:40:23;67489.38;;;21.98;100.00
37132;BME280;23035;50.032;21.978;2023-06-10T07:45:29;67570.56;;;22.74;100.00
37132;BME280;23035;50.032;21.978;2023-06-10T07:50:33;67622.09;;;23.28;100.00
37132;BME280;23035;50.032;21.978;2023-06-10T07:55:37;67730.88;;;24.27;94.68
37132;BME280;23035;50.032;21.978;2023-06-10T08:00:43;67703.19;;;23.99;95.73
37132;BME280;23035;50.032;21.978;2023-06-10T08:05:47;67709.66;;;24.02;93.51
37132;BME280;23035;50.032;21.978;2023-06-10T08:10:51;67604.78;;;23.11;100.00
37132;BME280;23035;50.032;21.978;2023-06-10T08:15:57;67552.19;;;22.59;100.00
37132;BME280;23035;50.032;21.978;2023-06-10T08:21:01;67520.72;;;22.25;100.00
37132;BME280;23035;50.032;21.978;2023-06-10T08:26:05;67483.56;;;21.97;100.00
37132;BME280;23035;50.032;21.978;2023-06-10T08:31:11;67636.06;;;23.36;100.00
37132;BME280;23035;50.032;21.978;2023-06-10T08:36:15;67539.72;;;22.45;100.00
37132;BME280;23035;50.032;21.978;2023-06-10T08:41:25;67613.41;;;23.19;100.00
37132;BME280;23035;50.032;21.978;2023-06-10T08:46:34;67628.00;;;23.31;99.24
37132;BME280;23035;50.032;21.978;2023-06-10T08:51:41;67605.72;;;23.07;100.00
37132;BME280;23035;50.032;21.978;2023-06-10T08:56:49;67568.94;;;22.73;100.00
37132;BME280;23035;50.032;21.978;2023-06-10T09:02:11;67593.97;;;23.01;100.00
37132;BME280;23035;50.032;21.978;2023-06-10T09:07:31;67653.38;;;23.52;100.00
37132;BME280;23035;50.032;21.978;2023-06-10T09:12:44;67564.00;;;22.66;100.00
37132;BME280;23035;50.032;21.978;2023-06-10T09:18:26;67538.63;;;22.44;100.00
37132;BME280;23035;50.032;21.978;2023-06-10T09:23:32;67600.88;;;23.03;100.00
37132;BME280;23035;50.032;21.978;2023-06-10T09:28:36;67656.66;;;23.58;98.00
37132;BME280;23035;50.032;21.978;2023-06-10T09:33:44;67689.16;;;23.88;95.44
37132;BME280;23035;50.032;21.978;2023-06-10T09:38:49;67694.59;;;23.93;94.50
37132;BME280;23035;50.032;21.978;2023-06-10T09:43:54;67714.63;;;24.12;91.77
37132;BME280;23035;50.032;21.978;2023-06-10T09:49:01;67761.63;;;24.49;89.25
37132;BME280;23035;50.032;21.978;2023-06-10T09:54:05;67820.81;;;25.09;86.54
37132;BME280;23035;50.032;21.978;2023-06-10T09:59:09;67737.94;;;24.34;87.77
37132;BME280;23035;50.032;21.978;2023-06-10T10:04:23;67758.47;;;24.51;84.17
37132;BME280;23035;50.032;21.978;2023-06-10T10:09:28;67722.81;;;24.22;87.92
37132;BME280;23035;50.032;21.978;2023-06-10T10:14:32;67777.47;;;24.71;83.08
37132;BME280;23035;50.032;21.978;2023-06-10T10:19:53;67820.25;;;25.09;80.35
37132;BME280;23035;50.032;21.978;2023-06-10T10:25:05;67766.66;;;24.61;83.56
37132;BME280;23035;50.032;21.978;2023-06-10T10:30:11;67636.16;;;23.41;92.84
37132;BME280;23035;50.032;21.978;2023-06-10T10:35:21;67624.16;;;23.25;96.98
37132;BME280;23035;50.032;21.978;2023-06-10T10:40:28;67762.22;;;24.52;90.41
37132;BME280;23035;50.032;21.978;2023-06-10T10:45:34;67818.69;;;25.10;83.61
37132;BME280;23035;50.032;21.978;2023-06-10T10:50:39;67650.13;;;23.49;91.93
37132;BME280;23035;50.032;21.978;2023-06-10T10:55:58;67697.84;;;23.96;89.15
37132;BME280;23035;50.032;21.978;2023-06-10T11:01:13;67835.00;;;25.28;87.78
37132;BME280;23035;50.032;21.978;2023-06-10T11:06:20;67833.81;;;25.22;84.07
37132;BME280;23035;50.032;21.978;2023-06-10T11:11:25;67954.13;;;26.32;78.79
37132;BME280;23035;50.032;21.978;2023-06-10T11:16:38;67794.28;;;24.87;81.45
37132;BME280;23035;50.032;21.978;2023-06-10T11:22:00;67795.38;;;24.88;84.66
37132;BME280;23035;50.032;21.978;2023-06-10T11:27:18;67619.22;;;23.17;92.70
37132;BME280;23035;50.032;21.978;2023-06-10T11:32:23;67660.41;;;23.59;93.19
37132;BME280;23035;50.032;21.978;2023-06-10T11:43:14;67575.47;;;22.81;99.62
37132;BME280;23035;50.032;21.978;2023-06-10T11:48:27;67717.25;;;24.10;92.28
37132;BME280;23035;50.032;21.978;2023-06-10T11:53:37;67760.16;;;24.55;89.38
37132;BME280;23035;50.032;21.978;2023-06-10T11:59:04;67792.06;;;24.82;87.60
37132;BME280;23035;50.032;21.978;2023-06-10T12:04:11;67919.56;;;26.07;79.06
37132;BME280;23035;50.032;21.978;2023-06-10T12:09:28;67945.44;;;26.24;77.13
37132;BME280;23035;50.032;21.978;2023-06-10T12:15:09;68011.19;;;26.91;74.40
37132;BME280;23035;50.032;21.978;2023-06-10T12:20:26;67868.00;;;25.56;78.44
37132;BME280;23035;50.032;21.978;2023-06-10T12:25:31;67965.69;;;26.50;76.80
37132;BME280;23035;50.032;21.978;2023-06-10T12:30:38;68056.75;;;27.31;71.14
37132;BME280;23035;50.032;21.978;2023-06-10T12:35:47;67849.50;;;25.36;76.40
37132;BME280;23035;50.032;21.978;2023-06-10T12:40:53;67784.53;;;24.78;85.73
37132;BME280;23035;50.032;21.978;2023-06-10T12:46:12;67711.38;;;24.09;86.62
37132;BME280;23035;50.032;21.978;2023-06-10T12:51:19;67760.69;;;24.55;85.08
37132;BME280;23035;50.032;21.978;2023-06-10T12:56:23;67911.94;;;25.97;76.22
37132;BME280;23035;50.032;21.978;2023-06-10T13:01:29;68008.50;;;26.88;69.97
37132;BME280;23035;50.032;21.978;2023-06-10T13:06:34;67843.03;;;25.30;79.79
37132;BME280;23035;50.032;21.978;2023-06-10T13:11:42;67831.19;;;25.24;81.08
37132;BME280;23035;50.032;21.978;2023-06-10T13:16:48;67732.97;;;24.27;87.11
37132;BME280;23035;50.032;21.978;2023-06-10T13:21:52;67665.91;;;23.66;93.10
37132;BME280;23035;50.032;21.978;2023-06-10T13:26:56;67701.66;;;24.00;91.61
37132;BME280;23035;50.032;21.978;2023-06-10T13:32:02;67824.59;;;25.13;84.65
37132;BME280;23035;50.032;21.978;2023-06-10T13:37:07;68018.78;;;26.98;71.21
37132;BME280;23035;50.032;21.978;2023-06-10T13:42:11;67910.78;;;25.94;75.80
37132;BME280;23035;50.032;21.978;2023-06-10T13:47:17;67702.19;;;24.00;88.53
37132;BME280;23035;50.032;21.978;2023-06-10T13:52:22;67638.31;;;23.43;95.59
37132;BME280;23035;50.032;21.978;2023-06-10T13:57:26;67581.50;;;22.89;95.65
37132;BME280;23035;50.032;21.978;2023-06-10T14:02:32;67595.50;;;23.00;99.25
37132;BME280;23035;50.032;21.978;2023-06-10T14:07:36;67497.03;;;22.08;100.00
37132;BME280;23035;50.032;21.978;2023-06-10T14:12:42;67502.31;;;22.08;100.00
37132;BME280;23035;50.032;21.978;2023-06-10T14:17:48;67550.63;;;22.60;99.53
37132;BME280;23035;50.032;21.978;2023-06-10T14:22:52;67494.25;;;22.02;100.00
37132;BME280;23035;50.032;21.978;2023-06-10T14:27:56;67513.84;;;22.26;98.37
37132;BME280;23035;50.032;21.978;2023-06-10T14:33:02;67466.25;;;21.81;100.00
37132;BME280;23035;50.032;21.978;2023-06-10T14:38:07;67460.84;;;21.76;100.00
37132;BME280;23035;50.032;21.978;2023-06-10T14:43:11;67524.50;;;22.28;98.49
37132;BME280;23035;50.032;21.978;2023-06-10T14:48:20;67549.44;;;22.54;96.82
37132;BME280;23035;50.032;21.978;2023-06-10T14:53:24;67546.75;;;22.52;97.32
37132;BME280;23035;50.032;21.978;2023-06-10T14:58:32;67608.50;;;23.12;92.66
37132;BME280;23035;50.032;21.978;2023-06-10T15:03:38;67572.66;;;22.74;93.27
37132;BME280;23035;50.032;21.978;2023-06-10T15:08:42;67576.50;;;22.80;88.46
37132;BME280;23035;50.032;21.978;2023-06-10T15:13:46;67514.81;;;22.22;95.94
37132;BME280;23035;50.032;21.978;2023-06-10T15:18:52;67548.97;;;22.56;100.00
37132;BME280;23035;50.032;21.978;2023-06-10T15:23:56;67586.25;;;22.89;100.00
37132;BME280;23035;50.032;21.978;2023-06-10T15:29:01;67544.03;;;22.49;100.00
37132;BME280;23035;50.032;21.978;2023-06-10T15:34:09;67475.88;;;21.85;100.00
37132;BME280;23035;50.032;21.978;2023-06-10T15:39:13;67455.91;;;21.69;100.00
37132;BME280;23035;50.032;21.978;2023-06-10T15:44:18;67436.88;;;21.46;100.00
37132;BME280;23035;50.032;21.978;2023-06-10T15:49:24;67361.84;;;20.80;100.00
37132;BME280;23035;50.032;21.978;2023-06-10T15:54:29;67435.25;;;21.44;100.00
37132;BME280;23035;50.032;21.978;2023-06-10T15:59:34;67416.94;;;21.30;100.00
37132;BME280;23035;50.032;21.978;2023-06-10T16:04:39;67415.78;;;21.26;100.00
37132;BME280;23035;50.032;21.978;2023-06-10T16:09:44;67387.78;;;21.05;100.00
37132;BME280;23035;50.032;21.978;2023-06-10T16:14:48;67297.47;;;20.17;100.00
37132;BME280;23035;50.032;21.978;2023-06-10T16:19:54;67213.34;;;19.43;100.00
37132;BME280;23035;50.032;21.978;2023-06-10T16:24:58;67296.41;;;20.16;100.00
37132;BME280;23035;50.032;21.978;2023-06-10T16:30:03;67299.63;;;20.19;100.00
37132;BME280;23035;50.032;21.978;2023-06-10T16:35:10;67247.19;;;19.67;100.00
37132;BME280;23035;50.032;21.978;2023-06-10T16:40:14;67198.56;;;19.22;100.00
37132;BME280;23035;50.032;21.978;2023-06-10T16:45:18;67191.00;;;19.14;100.00
37132;BME280;23035;50.032;21.978;2023-06-10T16:50:24;67203.09;;;19.33;100.00
37132;BME280;23035;50.032;21.978;2023-06-10T16:55:29;67207.28;;;19.32;100.00
37132;BME280;23035;50.032;21.978;2023-06-10T17:00:33;67207.81;;;19.33;100.00
37132;BME280;23035;50.032;21.978;2023-06-10T17:05:39;67213.22;;;19.38;100.00
37132;BME280;23035;50.032;21.978;2023-06-10T17:10:43;67133.25;;;18.60;100.00
37132;BME280;23035;50.032;21.978;2023-06-10T17:15:48;67172.81;;;19.02;100.00
37132;BME280;23035;50.032;21.978;2023-06-10T17:20:55;67113.28;;;18.41;100.00
37132;BME280;23035;50.032;21.978;2023-06-10T17:26:00;67121.47;;;18.51;100.00
37132;BME280;23035;50.032;21.978;2023-06-10T17:31:05;67095.63;;;18.29;100.00
37132;BME280;23035;50.032;21.978;2023-06-10T17:36:11;67113.91;;;18.44;100.00
37132;BME280;23035;50.032;21.978;2023-06-10T17:41:15;67080.94;;;18.11;100.00
37132;BME280;23035;50.032;21.978;2023-06-10T17:46:20;67050.78;;;17.85;100.00
37132;BME280;23035;50.032;21.978;2023-06-10T17:51:26;67006.63;;;17.45;100.00
37132;BME280;23035;50.032;21.978;2023-06-10T17:56:30;66965.06;;;17.04;100.00
37132;BME280;23035;50.032;21.978;2023-06-10T18:01:34;66870.66;;;16.12;100.00
37132;BME280;23035;50.032;21.978;2023-06-10T18:06:40;66880.44;;;16.24;100.00
37132;BME280;23035;50.032;21.978;2023-06-10T18:11:45;66837.44;;;15.86;100.00
37132;BME280;23035;50.032;21.978;2023-06-10T18:16:50;66845.91;;;15.89;100.00
37132;BME280;23035;50.032;21.978;2023-06-10T18:21:56;66834.06;;;15.77;100.00
37132;BME280;23035;50.032;21.978;2023-06-10T18:27:00;66839.53;;;15.85;100.00
37132;BME280;23035;50.032;21.978;2023-06-10T18:32:05;66816.91;;;15.64;100.00
37132;BME280;23035;50.032;21.978;2023-06-10T18:37:11;66829.13;;;15.70;100.00
37132;BME280;23035;50.032;21.978;2023-06-10T18:42:15;66801.25;;;15.49;100.00
37132;BME280;23035;50.032;21.978;2023-06-10T18:47:20;66797.50;;;15.45;100.00
37132;BME280;23035;50.032;21.978;2023-06-10T18:52:26;66819.00;;;15.63;100.00
37132;BME280;23035;50.032;21.978;2023-06-10T18:57:30;66812.56;;;15.60;100.00
37132;BME280;23035;50.032;21.978;2023-06-10T19:02:34;66787.94;;;15.41;100.00
37132;BME280;23035;50.032;21.978;2023-06-10T19:07:40;66740.38;;;14.89;100.00
37132;BME280;23035;50.032;21.978;2023-06-10T19:12:44;66752.38;;;15.05;100.00
37132;BME280;23035;50.032;21.978;2023-06-10T19:17:49;66755.13;;;15.10;100.00
37132;BME280;23035;50.032;21.978;2023-06-10T19:22:55;66752.81;;;15.03;100.00
37132;BME280;23035;50.032;21.978;2023-06-10T19:27:59;66736.16;;;14.87;100.00
37132;BME280;23035;50.032;21.978;2023-06-10T19:33:04;66728.47;;;14.75;100.00
37132;BME280;23035;50.032;21.978;2023-06-10T19:38:14;66732.91;;;14.84;100.00
37132;BME280;23035;50.032;21.978;2023-06-10T19:43:18;66745.38;;;14.99;100.00
37132;BME280;23035;50.032;21.978;2023-06-10T19:48:23;66737.75;;;14.89;100.00
37132;BME280;23035;50.032;21.978;2023-06-10T19:53:28;66730.69;;;14.80;100.00
37132;BME280;23035;50.032;21.978;2023-06-10T19:58:32;66745.28;;;14.96;100.00
37132;BME280;23035;50.032;21.978;2023-06-10T20:03:37;66765.28;;;15.17;100.00
37132;BME280;23035;50.032;21.978;2023-06-10T20:08:42;66729.16;;;14.81;100.00
37132;BME280;23035;50.032;21.978;2023-06-10T20:13:46;66735.16;;;14.89;100.00
37132;BME280;23035;50.032;21.978;2023-06-10T20:18:51;66699.47;;;14.50;100.00
37132;BME280;23035;50.032;21.978;2023-06-10T20:23:57;66673.19;;;14.28;100.00
37132;BME280;23035;50.032;21.978;2023-06-10T20:29:02;66679.19;;;14.36;100.00
37132;BME280;23035;50.032;21.978;2023-06-10T20:34:07;66717.78;;;14.68;100.00
37132;BME280;23035;50.032;21.978;2023-06-10T20:39:12;66695.31;;;14.51;100.00
37132;BME280;23035;50.032;21.978;2023-06-10T20:44:17;66687.22;;;14.44;100.00
37132;BME280;23035;50.032;21.978;2023-06-10T20:49:22;66697.94;;;14.51;100.00
37132;BME280;23035;50.032;21.978;2023-06-10T20:54:27;66654.91;;;14.11;100.00
37132;BME280;23035;50.032;21.978;2023-06-10T20:59:32;66651.22;;;14.10;100.00
37132;BME280;23035;50.032;21.978;2023-06-10T21:04:36;66664.56;;;14.20;100.00
37132;BME280;23035;50.032;21.978;2023-06-10T21:09:42;66718.47;;;14.73;100.00
37132;BME280;23035;50.032;21.978;2023-06-10T21:14:46;66680.09;;;14.32;100.00
37132;BME280;23035;50.032;21.978;2023-06-10T21:19:51;66659.66;;;14.13;100.00
37132;BME280;23035;50.032;21.978;2023-06-10T21:24:57;66707.56;;;14.58;100.00
37132;BME280;23035;50.032;21.978;2023-06-10T21:30:01;66698.56;;;14.54;100.00
37132;BME280;23035;50.032;21.978;2023-06-10T21:35:07;66723.63;;;14.71;100.00
37132;BME280;23035;50.032;21.978;2023-06-10T21:40:14;66750.75;;;15.04;100.00
37132;BME280;23035;50.032;21.978;2023-06-10T21:45:18;66764.69;;;15.14;100.00
37132;BME280;23035;50.032;21.978;2023-06-10T21:50:22;66751.84;;;15.05;100.00
37132;BME280;23035;50.032;21.978;2023-06-10T21:55:28;66709.69;;;14.60;100.00
37132;BME280;23035;50.032;21.978;2023-06-10T22:00:33;66756.59;;;15.07;100.00
37132;BME280;23035;50.032;21.978;2023-06-10T22:05:37;66790.56;;;15.41;100.00
37132;BME280;23035;50.032;21.978;2023-06-10T22:10:43;66804.50;;;15.52;100.00
37132;BME280;23035;50.032;21.978;2023-06-10T22:15:47;66799.19;;;15.49;100.00
37132;BME280;23035;50.032;21.978;2023-06-10T22:20:51;66792.66;;;15.41;100.00
37132;BME280;23035;50.032;21.978;2023-06-10T22:25:56;66807.56;;;15.50;100.00
37132;BME280;23035;50.032;21.978;2023-06-10T22:31:00;66783.34;;;15.27;100.00
37132;BME280;23035;50.032;21.978;2023-06-10T22:36:05;66748.66;;;15.04;100.00
37132;BME280;23035;50.032;21.978;2023-06-10T22:41:11;66795.91;;;15.44;100.00
37132;BME280;23035;50.032;21.978;2023-06-10T22:46:15;66790.34;;;15.34;100.00
37132;BME280;23035;50.032;21.978;2023-06-10T22:51:20;66760.81;;;15.08;100.00
37132;BME280;23035;50.032;21.978;2023-06-10T22:56:26;66769.97;;;15.17;100.00
37132;BME280;23035;50.032;21.978;2023-06-10T23:01:30;66744.28;;;14.98;100.00
37132;BME280;23035;50.032;21.978;2023-06-10T23:06:34;66729.16;;;14.81;100.00
37132;BME280;23035;50.032;21.978;2023-06-10T23:11:40;66742.59;;;14.93;100.00
37132;BME280;23035;50.032;21.978;2023-06-10T23:16:44;66751.28;;;15.04;100.00
37132;BME280;23035;50.032;21.978;2023-06-10T23:21:49;66811.91;;;15.54;100.00
37132;BME280;23035;50.032;21.978;2023-06-10T23:27:00;66788.41;;;15.39;100.00
37132;BME280;23035;50.032;21.978;2023-06-10T23:32:05;66803.41;;;15.51;100.00
37132;BME280;23035;50.032;21.978;2023-06-10T23:37:09;66787.81;;;15.36;100.00
37132;BME280;23035;50.032;21.978;2023-06-10T23:42:16;66825.13;;;15.76;100.00
37132;BME280;23035;50.032;21.978;2023-06-10T23:47:20;66820.19;;;15.69;100.00
37132;BME280;23035;50.032;21.978;2023-06-10T23:52:25;66816.97;;;15.66;100.00
37132;BME280;23035;50.032;21.978;2023-06-10T23:57:31;66850.75;;;15.93;100.00
